Skip to main content.
 TIME   TEMPERATURE   WINDSPEED   DIRECTION   HUMIDITY   BAROMETER   RAINFALL 
5:10 24.0°C (75.2°F) 7.4 kmh (4.6 mph) NE 94% 1011.9hPa (29.88 inHg) 0.0mm (0.00 in.)
4:10 24.0°C (75.2 °F) 13.0 kmh (8.1 mph) N 94% 1011.9hPa (29.88 inHg) 0.0mm (0.00 in.)
3:10 25.0°C (77.0 °F) 14.8 kmh (9.2 mph) NNW 83% 1011.9hPa (29.88 inHg) 0.0mm (0.00 in.)
2:10 25.0°C (77.0 °F) 13.0 kmh (8.1 mph) WNW 88% 1011.9hPa (29.88 inHg) 0.0mm (0.00 in.)
1:10 25.0°C (77.0 °F) 14.8 kmh (9.2 mph) NW 83% 1011.9hPa (29.88 inHg) 0.0mm (0.00 in.)
0:10 25.0°C (77.0 °F) 20.4 kmh (12.7 mph) NW 88% 1012.9hPa (29.91 inHg) 0.0mm (0.00 in.)
23:10 25.0°C (77.0 °F) 16.7 kmh (10.4 mph) WNW 83% 1012.9hPa (29.91 inHg) 0.0mm (0.00 in.)
22:10 26.0°C (78.8 °F) 9.3 kmh (5.8 mph) W 73% 1012.9hPa (29.91 inHg) 0.0mm (0.00 in.)
21:10 26.0°C (78.8 °F) 13.0 kmh (8.1 mph) WNW 69% 1012.9hPa (29.91 inHg) 0.0mm (0.00 in.)
20:10 27.0°C (80.6 °F) 13.0 kmh (8.1 mph) WNW 69% 1012.9hPa (29.91 inHg) 0.0mm (0.00 in.)
19:10 28.0°C (82.4 °F) 18.5 kmh (11.5 mph) WNW 61% 1012.9hPa (29.91 inHg) 0.0mm (0.00 in.)
18:10 30.0°C (86.0 °F) 22.2 kmh (13.8 mph) WNW 45% 1012.9hPa (29.91 inHg) 0.0mm (0.00 in.)
17:10 30.0°C (86.0 °F) 16.7 kmh (10.4 mph) NW 48% 1012.9hPa (29.91 inHg) 0.0mm (0.00 in.)
16:10 31.0°C (87.8 °F) 18.5 kmh (11.5 mph) NW 48% 1012.9hPa (29.91 inHg) 0.0mm (0.00 in.)
15:10 30.0°C (86.0 °F) 18.5 kmh (11.5 mph) NNW 55% 1013.9hPa (29.94 inHg) 0.0mm (0.00 in.)
14:10 31.0°C (87.8 °F) 16.7 kmh (10.4 mph) NNW 45% 1013.9hPa (29.94 inHg) 0.0mm (0.00 in.)
13:10 31.0°C (87.8 °F) 14.8 kmh (9.2 mph) NNW 45% 1013.9hPa (29.94 inHg) 0.0mm (0.00 in.)
12:10 29.0°C (84.2 °F) 14.8 kmh (9.2 mph) NNW 58% 1014.9hPa (29.97 inHg) 0.0mm (0.00 in.)
11:10 29.0°C (84.2 °F) 16.7 kmh (10.4 mph) WNW 58% 1014.9hPa (29.97 inHg) 0.0mm (0.00 in.)
10:10 28.0°C (82.4 °F) 20.4 kmh (12.7 mph) WNW 58% 1014.9hPa (29.97 inHg) 0.0mm (0.00 in.)
9:10 27.0°C (80.6 °F) 18.5 kmh (11.5 mph) NW 61% 1014.9hPa (29.97 inHg) 0.0mm (0.00 in.)
8:10 25.0°C (77.0 °F) 16.7 kmh (10.4 mph) NW 78% 1013.9hPa (29.94 inHg) 0.0mm (0.00 in.)
7:10 24.0°C (75.2 °F) 18.5 kmh (11.5 mph) NNW 83% 1013.9hPa (29.94 inHg) 0.0mm (0.00 in.)
6:10 24.0°C (75.2 °F) 18.5 kmh (11.5 mph) NW 83% 1013.9hPa (29.94 inHg) 0.0mm (0.00 in.)